sensor_id;sensor_type;location;lat;lon;timestamp;P1;durP1;ratioP1;P2;durP2;ratioP2
10005;SDS011;5042;42.626;23.382;2022-12-18T00:00:44;3.20;;;2.90;;
10005;SDS011;5042;42.626;23.382;2022-12-18T00:03:11;3.57;;;3.00;;
10005;SDS011;5042;42.626;23.382;2022-12-18T00:05:46;2.90;;;2.47;;
10005;SDS011;5042;42.626;23.382;2022-12-18T00:08:31;3.23;;;2.83;;
10005;SDS011;5042;42.626;23.382;2022-12-18T00:11:02;2.80;;;2.47;;
10005;SDS011;5042;42.626;23.382;2022-12-18T00:13:30;3.97;;;2.93;;
10005;SDS011;5042;42.626;23.382;2022-12-18T00:16:01;4.07;;;3.23;;
10005;SDS011;5042;42.626;23.382;2022-12-18T00:18:28;3.07;;;2.77;;
10005;SDS011;5042;42.626;23.382;2022-12-18T00:20:57;3.07;;;2.70;;
10005;SDS011;5042;42.626;23.382;2022-12-18T00:23:25;3.70;;;3.00;;
10005;SDS011;5042;42.626;23.382;2022-12-18T00:25:52;4.07;;;2.90;;
10005;SDS011;5042;42.626;23.382;2022-12-18T00:28:18;3.60;;;3.07;;
10005;SDS011;5042;42.626;23.382;2022-12-18T00:30:45;4.07;;;2.90;;
10005;SDS011;5042;42.626;23.382;2022-12-18T00:33:12;4.67;;;3.20;;
10005;SDS011;5042;42.626;23.382;2022-12-18T00:35:38;3.43;;;2.87;;
10005;SDS011;5042;42.626;23.382;2022-12-18T00:38:07;4.00;;;3.10;;
10005;SDS011;5042;42.626;23.382;2022-12-18T00:40:33;3.40;;;2.90;;
10005;SDS011;5042;42.626;23.382;2022-12-18T00:43:00;3.63;;;3.17;;
10005;SDS011;5042;42.626;23.382;2022-12-18T00:45:27;3.63;;;2.67;;
10005;SDS011;5042;42.626;23.382;2022-12-18T00:47:55;3.07;;;2.77;;
10005;SDS011;5042;42.626;23.382;2022-12-18T00:50:23;3.33;;;3.03;;
10005;SDS011;5042;42.626;23.382;2022-12-18T00:52:51;3.97;;;3.20;;
10005;SDS011;5042;42.626;23.382;2022-12-18T00:55:19;5.40;;;3.73;;
10005;SDS011;5042;42.626;23.382;2022-12-18T00:57:46;4.40;;;3.40;;
10005;SDS011;5042;42.626;23.382;2022-12-18T01:00:13;4.13;;;3.43;;
10005;SDS011;5042;42.626;23.382;2022-12-18T01:02:42;3.90;;;3.47;;
10005;SDS011;5042;42.626;23.382;2022-12-18T01:05:10;4.90;;;3.63;;
10005;SDS011;5042;42.626;23.382;2022-12-18T01:07:38;5.57;;;4.03;;
10005;SDS011;5042;42.626;23.382;2022-12-18T01:10:06;4.47;;;3.60;;
10005;SDS011;5042;42.626;23.382;2022-12-18T01:12:35;4.60;;;3.77;;
10005;SDS011;5042;42.626;23.382;2022-12-18T01:15:02;5.33;;;3.83;;
10005;SDS011;5042;42.626;23.382;2022-12-18T01:17:30;4.87;;;4.00;;
10005;SDS011;5042;42.626;23.382;2022-12-18T01:19:57;4.90;;;4.03;;
10005;SDS011;5042;42.626;23.382;2022-12-18T01:22:24;5.43;;;4.00;;
10005;SDS011;5042;42.626;23.382;2022-12-18T01:24:50;4.47;;;3.60;;
10005;SDS011;5042;42.626;23.382;2022-12-18T01:27:17;4.87;;;3.93;;
10005;SDS011;5042;42.626;23.382;2022-12-18T01:29:45;4.17;;;3.70;;
10005;SDS011;5042;42.626;23.382;2022-12-18T01:32:13;5.83;;;4.20;;
10005;SDS011;5042;42.626;23.382;2022-12-18T01:34:40;5.80;;;3.83;;
10005;SDS011;5042;42.626;23.382;2022-12-18T01:37:07;7.23;;;4.43;;
10005;SDS011;5042;42.626;23.382;2022-12-18T01:39:33;5.60;;;3.63;;
10005;SDS011;5042;42.626;23.382;2022-12-18T01:42:00;4.30;;;3.87;;
10005;SDS011;5042;42.626;23.382;2022-12-18T01:45:01;5.90;;;4.43;;
10005;SDS011;5042;42.626;23.382;2022-12-18T01:47:34;6.03;;;4.17;;
10005;SDS011;5042;42.626;23.382;2022-12-18T01:50:05;4.37;;;3.70;;
10005;SDS011;5042;42.626;23.382;2022-12-18T01:52:35;4.60;;;4.07;;
10005;SDS011;5042;42.626;23.382;2022-12-18T01:55:07;5.70;;;3.87;;
10005;SDS011;5042;42.626;23.382;2022-12-18T01:57:35;5.23;;;4.33;;
10005;SDS011;5042;42.626;23.382;2022-12-18T02:00:06;6.37;;;4.07;;
10005;SDS011;5042;42.626;23.382;2022-12-18T02:02:34;6.93;;;4.40;;
10005;SDS011;5042;42.626;23.382;2022-12-18T02:05:02;5.73;;;4.10;;
10005;SDS011;5042;42.626;23.382;2022-12-18T02:07:32;6.70;;;4.93;;
10005;SDS011;5042;42.626;23.382;2022-12-18T02:10:07;7.63;;;5.17;;
10005;SDS011;5042;42.626;23.382;2022-12-18T02:12:42;5.80;;;4.20;;
10005;SDS011;5042;42.626;23.382;2022-12-18T02:15:16;5.27;;;4.10;;
10005;SDS011;5042;42.626;23.382;2022-12-18T02:17:50;5.77;;;4.47;;
10005;SDS011;5042;42.626;23.382;2022-12-18T02:20:21;7.40;;;4.97;;
10005;SDS011;5042;42.626;23.382;2022-12-18T02:22:57;5.67;;;4.43;;
10005;SDS011;5042;42.626;23.382;2022-12-18T02:25:39;6.13;;;4.03;;
10005;SDS011;5042;42.626;23.382;2022-12-18T02:28:14;6.50;;;4.63;;
10005;SDS011;5042;42.626;23.382;2022-12-18T02:30:45;5.83;;;4.30;;
10005;SDS011;5042;42.626;23.382;2022-12-18T02:33:15;6.73;;;4.83;;
10005;SDS011;5042;42.626;23.382;2022-12-18T02:35:43;6.27;;;4.90;;
10005;SDS011;5042;42.626;23.382;2022-12-18T02:38:12;5.30;;;4.53;;
10005;SDS011;5042;42.626;23.382;2022-12-18T02:40:42;6.67;;;4.57;;
10005;SDS011;5042;42.626;23.382;2022-12-18T02:43:11;7.17;;;5.27;;
10005;SDS011;5042;42.626;23.382;2022-12-18T02:45:48;7.87;;;5.20;;
10005;SDS011;5042;42.626;23.382;2022-12-18T02:48:17;6.33;;;4.70;;
10005;SDS011;5042;42.626;23.382;2022-12-18T02:50:51;6.60;;;4.93;;
10005;SDS011;5042;42.626;23.382;2022-12-18T02:53:24;6.77;;;5.03;;
10005;SDS011;5042;42.626;23.382;2022-12-18T02:55:58;7.67;;;5.17;;
10005;SDS011;5042;42.626;23.382;2022-12-18T02:58:33;7.57;;;5.10;;
10005;SDS011;5042;42.626;23.382;2022-12-18T03:01:15;7.47;;;5.40;;
10005;SDS011;5042;42.626;23.382;2022-12-18T03:03:46;6.03;;;4.63;;
10005;SDS011;5042;42.626;23.382;2022-12-18T03:06:20;7.33;;;4.97;;
10005;SDS011;5042;42.626;23.382;2022-12-18T03:08:51;6.63;;;4.43;;
10005;SDS011;5042;42.626;23.382;2022-12-18T03:11:23;7.37;;;5.03;;
10005;SDS011;5042;42.626;23.382;2022-12-18T03:14:06;6.60;;;5.00;;
10005;SDS011;5042;42.626;23.382;2022-12-18T03:16:35;7.63;;;5.30;;
10005;SDS011;5042;42.626;23.382;2022-12-18T03:19:03;6.40;;;5.10;;
10005;SDS011;5042;42.626;23.382;2022-12-18T03:21:34;7.00;;;5.13;;
10005;SDS011;5042;42.626;23.382;2022-12-18T03:24:07;5.97;;;4.90;;
10005;SDS011;5042;42.626;23.382;2022-12-18T03:26:36;8.10;;;5.27;;
10005;SDS011;5042;42.626;23.382;2022-12-18T03:29:07;6.10;;;4.77;;
10005;SDS011;5042;42.626;23.382;2022-12-18T03:31:40;7.67;;;4.87;;
10005;SDS011;5042;42.626;23.382;2022-12-18T03:34:12;7.40;;;5.20;;
10005;SDS011;5042;42.626;23.382;2022-12-18T03:36:42;6.20;;;4.60;;
10005;SDS011;5042;42.626;23.382;2022-12-18T03:39:09;5.37;;;4.07;;
10005;SDS011;5042;42.626;23.382;2022-12-18T03:41:37;5.90;;;4.40;;
10005;SDS011;5042;42.626;23.382;2022-12-18T03:44:11;8.53;;;5.10;;
10005;SDS011;5042;42.626;23.382;2022-12-18T03:46:44;5.90;;;4.80;;
10005;SDS011;5042;42.626;23.382;2022-12-18T03:49:19;6.30;;;4.63;;
10005;SDS011;5042;42.626;23.382;2022-12-18T03:51:52;7.40;;;4.90;;
10005;SDS011;5042;42.626;23.382;2022-12-18T03:54:23;6.97;;;4.60;;
10005;SDS011;5042;42.626;23.382;2022-12-18T03:56:55;5.20;;;4.00;;
10005;SDS011;5042;42.626;23.382;2022-12-18T03:59:24;6.93;;;4.33;;
10005;SDS011;5042;42.626;23.382;2022-12-18T04:01:56;7.00;;;5.00;;
10005;SDS011;5042;42.626;23.382;2022-12-18T04:04:26;6.37;;;4.40;;
10005;SDS011;5042;42.626;23.382;2022-12-18T04:06:54;5.70;;;4.47;;
10005;SDS011;5042;42.626;23.382;2022-12-18T04:09:21;8.33;;;4.73;;
10005;SDS011;5042;42.626;23.382;2022-12-18T04:11:49;6.70;;;4.50;;
10005;SDS011;5042;42.626;23.382;2022-12-18T04:14:17;5.83;;;3.63;;
10005;SDS011;5042;42.626;23.382;2022-12-18T04:16:44;4.87;;;4.10;;
10005;SDS011;5042;42.626;23.382;2022-12-18T04:19:12;4.97;;;4.00;;
10005;SDS011;5042;42.626;23.382;2022-12-18T04:21:39;4.63;;;3.90;;
10005;SDS011;5042;42.626;23.382;2022-12-18T04:24:06;4.43;;;3.87;;
10005;SDS011;5042;42.626;23.382;2022-12-18T04:26:33;5.17;;;4.00;;
10005;SDS011;5042;42.626;23.382;2022-12-18T04:29:00;5.33;;;4.23;;
10005;SDS011;5042;42.626;23.382;2022-12-18T04:31:27;4.87;;;4.27;;
10005;SDS011;5042;42.626;23.382;2022-12-18T04:33:53;7.17;;;4.43;;
10005;SDS011;5042;42.626;23.382;2022-12-18T04:36:21;4.73;;;4.13;;
10005;SDS011;5042;42.626;23.382;2022-12-18T04:38:48;5.03;;;3.80;;
10005;SDS011;5042;42.626;23.382;2022-12-18T04:41:15;5.60;;;4.20;;
10005;SDS011;5042;42.626;23.382;2022-12-18T04:43:42;7.00;;;4.43;;
10005;SDS011;5042;42.626;23.382;2022-12-18T04:46:08;5.07;;;3.83;;
10005;SDS011;5042;42.626;23.382;2022-12-18T04:48:35;5.43;;;4.03;;
10005;SDS011;5042;42.626;23.382;2022-12-18T04:51:02;6.03;;;4.17;;
10005;SDS011;5042;42.626;23.382;2022-12-18T04:53:31;7.53;;;4.30;;
10005;SDS011;5042;42.626;23.382;2022-12-18T04:56:05;6.23;;;4.23;;
10005;SDS011;5042;42.626;23.382;2022-12-18T04:58:33;6.73;;;4.67;;
10005;SDS011;5042;42.626;23.382;2022-12-18T05:00:59;5.87;;;4.60;;
10005;SDS011;5042;42.626;23.382;2022-12-18T05:03:26;6.33;;;4.90;;
10005;SDS011;5042;42.626;23.382;2022-12-18T05:05:53;7.30;;;4.83;;
10005;SDS011;5042;42.626;23.382;2022-12-18T05:08:20;7.67;;;4.97;;
10005;SDS011;5042;42.626;23.382;2022-12-18T05:10:48;6.67;;;4.63;;
10005;SDS011;5042;42.626;23.382;2022-12-18T05:13:14;7.07;;;4.47;;
10005;SDS011;5042;42.626;23.382;2022-12-18T05:15:41;8.17;;;5.10;;
10005;SDS011;5042;42.626;23.382;2022-12-18T05:18:08;7.67;;;4.73;;
10005;SDS011;5042;42.626;23.382;2022-12-18T05:20:35;7.37;;;5.43;;
10005;SDS011;5042;42.626;23.382;2022-12-18T05:23:01;6.80;;;5.00;;
10005;SDS011;5042;42.626;23.382;2022-12-18T05:25:28;6.03;;;4.87;;
10005;SDS011;5042;42.626;23.382;2022-12-18T05:27:56;7.80;;;5.53;;
10005;SDS011;5042;42.626;23.382;2022-12-18T05:30:23;7.37;;;5.50;;
10005;SDS011;5042;42.626;23.382;2022-12-18T05:32:50;6.90;;;5.00;;
10005;SDS011;5042;42.626;23.382;2022-12-18T05:35:16;9.33;;;5.30;;
10005;SDS011;5042;42.626;23.382;2022-12-18T05:37:43;6.43;;;4.90;;
10005;SDS011;5042;42.626;23.382;2022-12-18T05:40:10;6.83;;;5.10;;
10005;SDS011;5042;42.626;23.382;2022-12-18T05:42:38;6.93;;;5.20;;
10005;SDS011;5042;42.626;23.382;2022-12-18T05:45:07;8.13;;;5.37;;
10005;SDS011;5042;42.626;23.382;2022-12-18T05:47:34;9.40;;;5.50;;
10005;SDS011;5042;42.626;23.382;2022-12-18T05:50:00;8.30;;;5.70;;
10005;SDS011;5042;42.626;23.382;2022-12-18T05:52:27;7.63;;;5.07;;
10005;SDS011;5042;42.626;23.382;2022-12-18T05:54:54;6.57;;;4.97;;
10005;SDS011;5042;42.626;23.382;2022-12-18T05:57:21;7.27;;;5.30;;
10005;SDS011;5042;42.626;23.382;2022-12-18T05:59:47;7.50;;;5.27;;
10005;SDS011;5042;42.626;23.382;2022-12-18T06:02:15;6.83;;;4.77;;
10005;SDS011;5042;42.626;23.382;2022-12-18T06:04:42;7.67;;;5.60;;
10005;SDS011;5042;42.626;23.382;2022-12-18T06:07:09;10.10;;;5.77;;
10005;SDS011;5042;42.626;23.382;2022-12-18T06:09:36;7.03;;;5.23;;
10005;SDS011;5042;42.626;23.382;2022-12-18T06:12:02;8.83;;;5.63;;
10005;SDS011;5042;42.626;23.382;2022-12-18T06:14:30;8.33;;;5.60;;
10005;SDS011;5042;42.626;23.382;2022-12-18T06:16:56;9.37;;;5.97;;
10005;SDS011;5042;42.626;23.382;2022-12-18T06:19:24;8.37;;;5.40;;
10005;SDS011;5042;42.626;23.382;2022-12-18T06:21:51;8.73;;;5.23;;
10005;SDS011;5042;42.626;23.382;2022-12-18T06:24:18;8.60;;;5.87;;
10005;SDS011;5042;42.626;23.382;2022-12-18T06:26:44;8.87;;;5.87;;
10005;SDS011;5042;42.626;23.382;2022-12-18T06:29:11;13.97;;;6.20;;
10005;SDS011;5042;42.626;23.382;2022-12-18T06:31:38;10.27;;;6.40;;
10005;SDS011;5042;42.626;23.382;2022-12-18T06:34:05;10.67;;;6.37;;
10005;SDS011;5042;42.626;23.382;2022-12-18T06:36:33;9.37;;;5.80;;
10005;SDS011;5042;42.626;23.382;2022-12-18T06:39:00;10.53;;;6.33;;
10005;SDS011;5042;42.626;23.382;2022-12-18T06:41:26;9.63;;;6.10;;
10005;SDS011;5042;42.626;23.382;2022-12-18T06:43:53;8.70;;;5.87;;
10005;SDS011;5042;42.626;23.382;2022-12-18T06:46:20;9.80;;;6.27;;
10005;SDS011;5042;42.626;23.382;2022-12-18T06:48:48;9.30;;;6.67;;
10005;SDS011;5042;42.626;23.382;2022-12-18T06:51:16;10.07;;;6.30;;
10005;SDS011;5042;42.626;23.382;2022-12-18T06:53:46;8.20;;;5.67;;
10005;SDS011;5042;42.626;23.382;2022-12-18T06:56:13;7.90;;;5.93;;
10005;SDS011;5042;42.626;23.382;2022-12-18T06:58:40;8.77;;;5.80;;
10005;SDS011;5042;42.626;23.382;2022-12-18T07:01:07;9.87;;;6.37;;
10005;SDS011;5042;42.626;23.382;2022-12-18T07:03:36;11.27;;;6.30;;
10005;SDS011;5042;42.626;23.382;2022-12-18T07:06:03;10.13;;;6.10;;
10005;SDS011;5042;42.626;23.382;2022-12-18T07:08:30;8.53;;;6.03;;
10005;SDS011;5042;42.626;23.382;2022-12-18T07:10:58;10.43;;;6.70;;
10005;SDS011;5042;42.626;23.382;2022-12-18T07:13:25;8.90;;;6.17;;
10005;SDS011;5042;42.626;23.382;2022-12-18T07:15:52;8.40;;;5.70;;
10005;SDS011;5042;42.626;23.382;2022-12-18T07:18:18;8.77;;;5.80;;
10005;SDS011;5042;42.626;23.382;2022-12-18T07:20:45;9.37;;;6.50;;
10005;SDS011;5042;42.626;23.382;2022-12-18T07:23:12;10.63;;;6.17;;
10005;SDS011;5042;42.626;23.382;2022-12-18T07:25:39;10.03;;;6.23;;
10005;SDS011;5042;42.626;23.382;2022-12-18T07:28:07;9.00;;;5.87;;
10005;SDS011;5042;42.626;23.382;2022-12-18T07:30:33;10.93;;;6.33;;
10005;SDS011;5042;42.626;23.382;2022-12-18T07:33:03;8.57;;;5.93;;
10005;SDS011;5042;42.626;23.382;2022-12-18T07:35:30;9.17;;;6.13;;
10005;SDS011;5042;42.626;23.382;2022-12-18T07:37:56;10.00;;;6.30;;
10005;SDS011;5042;42.626;23.382;2022-12-18T07:40:23;10.27;;;6.03;;
10005;SDS011;5042;42.626;23.382;2022-12-18T07:42:50;11.03;;;6.20;;
10005;SDS011;5042;42.626;23.382;2022-12-18T07:45:18;10.53;;;6.20;;
10005;SDS011;5042;42.626;23.382;2022-12-18T07:47:45;11.03;;;7.23;;
10005;SDS011;5042;42.626;23.382;2022-12-18T07:50:11;10.93;;;7.30;;
10005;SDS011;5042;42.626;23.382;2022-12-18T07:52:38;11.03;;;6.80;;
10005;SDS011;5042;42.626;23.382;2022-12-18T07:55:05;11.57;;;6.73;;
10005;SDS011;5042;42.626;23.382;2022-12-18T07:57:32;10.03;;;6.00;;
10005;SDS011;5042;42.626;23.382;2022-12-18T07:59:59;11.20;;;6.83;;
10005;SDS011;5042;42.626;23.382;2022-12-18T08:02:27;11.00;;;6.80;;
10005;SDS011;5042;42.626;23.382;2022-12-18T08:04:58;11.50;;;6.33;;
10005;SDS011;5042;42.626;23.382;2022-12-18T08:07:25;10.90;;;6.50;;
10005;SDS011;5042;42.626;23.382;2022-12-18T08:09:52;9.17;;;6.00;;
10005;SDS011;5042;42.626;23.382;2022-12-18T08:12:19;11.53;;;6.50;;
10005;SDS011;5042;42.626;23.382;2022-12-18T08:14:45;8.57;;;6.60;;
10005;SDS011;5042;42.626;23.382;2022-12-18T08:17:12;12.80;;;6.20;;
10005;SDS011;5042;42.626;23.382;2022-12-18T08:19:40;10.57;;;6.60;;
10005;SDS011;5042;42.626;23.382;2022-12-18T08:22:07;11.83;;;7.00;;
10005;SDS011;5042;42.626;23.382;2022-12-18T08:24:33;10.60;;;6.70;;
10005;SDS011;5042;42.626;23.382;2022-12-18T08:27:00;11.53;;;6.93;;
10005;SDS011;5042;42.626;23.382;2022-12-18T08:29:27;9.90;;;6.50;;
10005;SDS011;5042;42.626;23.382;2022-12-18T08:31:55;10.10;;;6.83;;
10005;SDS011;5042;42.626;23.382;2022-12-18T08:34:22;9.93;;;6.67;;
10005;SDS011;5042;42.626;23.382;2022-12-18T08:36:50;11.27;;;6.60;;
10005;SDS011;5042;42.626;23.382;2022-12-18T08:39:17;11.03;;;7.10;;
10005;SDS011;5042;42.626;23.382;2022-12-18T08:41:44;12.70;;;7.70;;
10005;SDS011;5042;42.626;23.382;2022-12-18T08:44:31;11.13;;;7.63;;
10005;SDS011;5042;42.626;23.382;2022-12-18T08:47:02;13.73;;;7.03;;
10005;SDS011;5042;42.626;23.382;2022-12-18T08:49:29;11.90;;;7.03;;
10005;SDS011;5042;42.626;23.382;2022-12-18T08:51:57;11.57;;;6.90;;
10005;SDS011;5042;42.626;23.382;2022-12-18T08:54:24;14.03;;;7.60;;
10005;SDS011;5042;42.626;23.382;2022-12-18T08:56:51;14.57;;;7.73;;
10005;SDS011;5042;42.626;23.382;2022-12-18T08:59:18;12.10;;;6.90;;
10005;SDS011;5042;42.626;23.382;2022-12-18T09:01:45;12.10;;;7.10;;
10005;SDS011;5042;42.626;23.382;2022-12-18T09:04:13;12.20;;;7.30;;
10005;SDS011;5042;42.626;23.382;2022-12-18T09:06:40;14.20;;;7.03;;
10005;SDS011;5042;42.626;23.382;2022-12-18T09:09:09;13.07;;;7.90;;
10005;SDS011;5042;42.626;23.382;2022-12-18T09:11:36;12.53;;;7.60;;
10005;SDS011;5042;42.626;23.382;2022-12-18T09:14:03;14.40;;;7.93;;
10005;SDS011;5042;42.626;23.382;2022-12-18T09:16:30;13.60;;;7.70;;
10005;SDS011;5042;42.626;23.382;2022-12-18T09:19:00;15.53;;;8.67;;
10005;SDS011;5042;42.626;23.382;2022-12-18T09:21:28;13.17;;;7.97;;
10005;SDS011;5042;42.626;23.382;2022-12-18T09:23:57;14.63;;;8.67;;
10005;SDS011;5042;42.626;23.382;2022-12-18T09:26:25;12.70;;;7.83;;
10005;SDS011;5042;42.626;23.382;2022-12-18T09:28:53;13.83;;;8.20;;
10005;SDS011;5042;42.626;23.382;2022-12-18T09:31:21;13.50;;;8.10;;
10005;SDS011;5042;42.626;23.382;2022-12-18T09:33:49;15.17;;;8.53;;
10005;SDS011;5042;42.626;23.382;2022-12-18T09:36:16;15.53;;;9.13;;
10005;SDS011;5042;42.626;23.382;2022-12-18T09:38:44;15.07;;;8.50;;
10005;SDS011;5042;42.626;23.382;2022-12-18T09:41:27;14.87;;;8.20;;
10005;SDS011;5042;42.626;23.382;2022-12-18T09:44:09;10.57;;;7.33;;
10005;SDS011;5042;42.626;23.382;2022-12-18T09:46:43;14.67;;;7.80;;
10005;SDS011;5042;42.626;23.382;2022-12-18T09:49:14;13.57;;;8.17;;
10005;SDS011;5042;42.626;23.382;2022-12-18T09:51:44;11.23;;;7.60;;
10005;SDS011;5042;42.626;23.382;2022-12-18T09:54:14;15.67;;;7.97;;
10005;SDS011;5042;42.626;23.382;2022-12-18T09:56:46;13.07;;;7.63;;
10005;SDS011;5042;42.626;23.382;2022-12-18T09:59:16;10.63;;;7.07;;
10005;SDS011;5042;42.626;23.382;2022-12-18T10:01:47;11.67;;;7.73;;
10005;SDS011;5042;42.626;23.382;2022-12-18T10:04:14;13.20;;;7.50;;
10005;SDS011;5042;42.626;23.382;2022-12-18T10:06:42;11.97;;;7.30;;
10005;SDS011;5042;42.626;23.382;2022-12-18T10:09:14;11.47;;;7.13;;
10005;SDS011;5042;42.626;23.382;2022-12-18T10:11:53;13.40;;;6.83;;
10005;SDS011;5042;42.626;23.382;2022-12-18T10:14:30;10.37;;;6.63;;
10005;SDS011;5042;42.626;23.382;2022-12-18T10:17:03;13.63;;;7.47;;
10005;SDS011;5042;42.626;23.382;2022-12-18T10:19:39;14.17;;;7.13;;
10005;SDS011;5042;42.626;23.382;2022-12-18T10:22:16;12.30;;;6.70;;
10005;SDS011;5042;42.626;23.382;2022-12-18T10:24:53;14.20;;;6.60;;
10005;SDS011;5042;42.626;23.382;2022-12-18T10:27:26;11.93;;;7.07;;
10005;SDS011;5042;42.626;23.382;2022-12-18T10:29:54;13.43;;;6.77;;
10005;SDS011;5042;42.626;23.382;2022-12-18T10:32:22;12.83;;;7.30;;
10005;SDS011;5042;42.626;23.382;2022-12-18T10:34:52;11.87;;;6.70;;
10005;SDS011;5042;42.626;23.382;2022-12-18T10:37:20;12.37;;;7.03;;
10005;SDS011;5042;42.626;23.382;2022-12-18T10:40:04;12.87;;;7.37;;
10005;SDS011;5042;42.626;23.382;2022-12-18T10:42:36;11.80;;;6.87;;
10005;SDS011;5042;42.626;23.382;2022-12-18T10:45:03;12.73;;;6.40;;
10005;SDS011;5042;42.626;23.382;2022-12-18T10:47:36;10.83;;;6.63;;
10005;SDS011;5042;42.626;23.382;2022-12-18T10:50:16;13.17;;;7.50;;
10005;SDS011;5042;42.626;23.382;2022-12-18T10:52:52;13.90;;;7.73;;
10005;SDS011;5042;42.626;23.382;2022-12-18T10:55:20;14.13;;;8.23;;
10005;SDS011;5042;42.626;23.382;2022-12-18T10:57:49;14.50;;;7.93;;
10005;SDS011;5042;42.626;23.382;2022-12-18T11:00:20;12.90;;;8.17;;
10005;SDS011;5042;42.626;23.382;2022-12-18T11:02:50;12.97;;;7.93;;
10005;SDS011;5042;42.626;23.382;2022-12-18T11:05:24;15.93;;;8.57;;
10005;SDS011;5042;42.626;23.382;2022-12-18T11:07:53;11.33;;;7.03;;
10005;SDS011;5042;42.626;23.382;2022-12-18T11:10:21;13.87;;;7.30;;
10005;SDS011;5042;42.626;23.382;2022-12-18T11:12:52;13.03;;;7.63;;
10005;SDS011;5042;42.626;23.382;2022-12-18T11:15:20;14.27;;;7.27;;
10005;SDS011;5042;42.626;23.382;2022-12-18T11:17:51;15.87;;;8.40;;
10005;SDS011;5042;42.626;23.382;2022-12-18T11:20:27;14.23;;;7.30;;
10005;SDS011;5042;42.626;23.382;2022-12-18T11:22:58;11.03;;;7.07;;
10005;SDS011;5042;42.626;23.382;2022-12-18T11:25:26;9.73;;;6.60;;
10005;SDS011;5042;42.626;23.382;2022-12-18T11:27:55;12.07;;;6.90;;
10005;SDS011;5042;42.626;23.382;2022-12-18T11:30:25;12.27;;;7.30;;
10005;SDS011;5042;42.626;23.382;2022-12-18T11:32:54;10.50;;;6.93;;
10005;SDS011;5042;42.626;23.382;2022-12-18T11:35:27;13.57;;;8.07;;
10005;SDS011;5042;42.626;23.382;2022-12-18T11:38:02;13.27;;;7.20;;
10005;SDS011;5042;42.626;23.382;2022-12-18T11:40:37;12.10;;;6.97;;
10005;SDS011;5042;42.626;23.382;2022-12-18T11:43:09;9.17;;;6.50;;
10005;SDS011;5042;42.626;23.382;2022-12-18T11:45:41;11.97;;;7.37;;
10005;SDS011;5042;42.626;23.382;2022-12-18T11:48:16;13.47;;;7.63;;
10005;SDS011;5042;42.626;23.382;2022-12-18T11:50:46;10.57;;;6.57;;
10005;SDS011;5042;42.626;23.382;2022-12-18T11:53:16;11.83;;;7.33;;
10005;SDS011;5042;42.626;23.382;2022-12-18T11:55:47;10.47;;;6.63;;
10005;SDS011;5042;42.626;23.382;2022-12-18T11:58:23;11.07;;;6.93;;
10005;SDS011;5042;42.626;23.382;2022-12-18T12:01:05;11.73;;;6.90;;
10005;SDS011;5042;42.626;23.382;2022-12-18T12:03:50;12.17;;;6.90;;
10005;SDS011;5042;42.626;23.382;2022-12-18T12:06:31;9.33;;;6.83;;
10005;SDS011;5042;42.626;23.382;2022-12-18T12:09:10;10.10;;;6.20;;
10005;SDS011;5042;42.626;23.382;2022-12-18T12:11:47;11.50;;;7.17;;
10005;SDS011;5042;42.626;23.382;2022-12-18T12:14:29;10.40;;;6.60;;
10005;SDS011;5042;42.626;23.382;2022-12-18T12:17:11;12.67;;;7.13;;
10005;SDS011;5042;42.626;23.382;2022-12-18T12:19:48;12.10;;;7.00;;
10005;SDS011;5042;42.626;23.382;2022-12-18T12:22:23;10.30;;;6.47;;
10005;SDS011;5042;42.626;23.382;2022-12-18T12:24:59;11.93;;;6.87;;
10005;SDS011;5042;42.626;23.382;2022-12-18T12:27:39;10.60;;;6.87;;
10005;SDS011;5042;42.626;23.382;2022-12-18T12:30:16;11.83;;;7.13;;
10005;SDS011;5042;42.626;23.382;2022-12-18T12:32:51;14.33;;;7.17;;
10005;SDS011;5042;42.626;23.382;2022-12-18T12:35:34;10.70;;;7.50;;
10005;SDS011;5042;42.626;23.382;2022-12-18T12:38:11;11.97;;;7.40;;
10005;SDS011;5042;42.626;23.382;2022-12-18T12:40:42;12.57;;;7.67;;
10005;SDS011;5042;42.626;23.382;2022-12-18T12:43:16;13.70;;;7.47;;
10005;SDS011;5042;42.626;23.382;2022-12-18T12:45:50;13.10;;;8.00;;
10005;SDS011;5042;42.626;23.382;2022-12-18T12:48:22;12.10;;;7.17;;
10005;SDS011;5042;42.626;23.382;2022-12-18T12:50:58;12.73;;;7.57;;
10005;SDS011;5042;42.626;23.382;2022-12-18T12:53:27;13.30;;;7.93;;
10005;SDS011;5042;42.626;23.382;2022-12-18T12:55:59;12.30;;;7.87;;
10005;SDS011;5042;42.626;23.382;2022-12-18T12:58:30;12.27;;;7.93;;
10005;SDS011;5042;42.626;23.382;2022-12-18T13:01:08;13.90;;;7.53;;
10005;SDS011;5042;42.626;23.382;2022-12-18T13:03:42;12.10;;;7.63;;
10005;SDS011;5042;42.626;23.382;2022-12-18T13:06:14;11.47;;;7.00;;
10005;SDS011;5042;42.626;23.382;2022-12-18T13:08:53;12.63;;;7.90;;
10005;SDS011;5042;42.626;23.382;2022-12-18T13:11:29;12.27;;;7.90;;
10005;SDS011;5042;42.626;23.382;2022-12-18T13:14:22;10.53;;;6.93;;
10005;SDS011;5042;42.626;23.382;2022-12-18T13:16:57;13.03;;;8.13;;
10005;SDS011;5042;42.626;23.382;2022-12-18T13:19:40;14.37;;;8.43;;
10005;SDS011;5042;42.626;23.382;2022-12-18T13:22:19;14.20;;;7.83;;
10005;SDS011;5042;42.626;23.382;2022-12-18T13:24:47;14.17;;;8.00;;
10005;SDS011;5042;42.626;23.382;2022-12-18T13:30:42;15.13;;;9.13;;
10005;SDS011;5042;42.626;23.382;2022-12-18T13:36:27;13.00;;;7.97;;
10005;SDS011;5042;42.626;23.382;2022-12-18T13:39:15;12.37;;;8.07;;
10005;SDS011;5042;42.626;23.382;2022-12-18T13:41:50;13.77;;;7.70;;
10005;SDS011;5042;42.626;23.382;2022-12-18T13:44:24;15.43;;;8.80;;
10005;SDS011;5042;42.626;23.382;2022-12-18T13:46:55;12.47;;;7.77;;
10005;SDS011;5042;42.626;23.382;2022-12-18T13:49:24;12.93;;;8.00;;
10005;SDS011;5042;42.626;23.382;2022-12-18T13:51:56;15.00;;;8.00;;
10005;SDS011;5042;42.626;23.382;2022-12-18T13:54:25;13.67;;;8.03;;
10005;SDS011;5042;42.626;23.382;2022-12-18T13:56:56;11.60;;;7.50;;
10005;SDS011;5042;42.626;23.382;2022-12-18T13:59:23;15.63;;;8.33;;
10005;SDS011;5042;42.626;23.382;2022-12-18T14:01:52;11.40;;;7.60;;
10005;SDS011;5042;42.626;23.382;2022-12-18T14:04:21;14.47;;;7.47;;
10005;SDS011;5042;42.626;23.382;2022-12-18T14:06:55;14.53;;;8.37;;
10005;SDS011;5042;42.626;23.382;2022-12-18T14:09:25;17.00;;;8.40;;
10005;SDS011;5042;42.626;23.382;2022-12-18T14:11:54;17.67;;;8.30;;
10005;SDS011;5042;42.626;23.382;2022-12-18T14:14:43;10.93;;;7.00;;
10005;SDS011;5042;42.626;23.382;2022-12-18T14:17:12;13.83;;;8.20;;
10005;SDS011;5042;42.626;23.382;2022-12-18T14:19:45;14.97;;;8.17;;
10005;SDS011;5042;42.626;23.382;2022-12-18T14:22:15;12.40;;;7.83;;
10005;SDS011;5042;42.626;23.382;2022-12-18T14:24:44;13.90;;;8.30;;
10005;SDS011;5042;42.626;23.382;2022-12-18T14:27:20;14.83;;;8.63;;
10005;SDS011;5042;42.626;23.382;2022-12-18T14:29:49;14.10;;;8.07;;
10005;SDS011;5042;42.626;23.382;2022-12-18T14:32:16;13.90;;;8.03;;
10005;SDS011;5042;42.626;23.382;2022-12-18T14:34:46;14.80;;;8.33;;
10005;SDS011;5042;42.626;23.382;2022-12-18T14:37:14;13.40;;;7.37;;
10005;SDS011;5042;42.626;23.382;2022-12-18T14:39:54;10.67;;;6.77;;
10005;SDS011;5042;42.626;23.382;2022-12-18T14:42:23;10.60;;;7.47;;
10005;SDS011;5042;42.626;23.382;2022-12-18T14:47:52;12.03;;;7.10;;
10005;SDS011;5042;42.626;23.382;2022-12-18T14:50:20;11.20;;;6.23;;
10005;SDS011;5042;42.626;23.382;2022-12-18T14:52:47;10.50;;;6.80;;
10005;SDS011;5042;42.626;23.382;2022-12-18T14:55:15;9.90;;;6.50;;
10005;SDS011;5042;42.626;23.382;2022-12-18T14:57:42;12.67;;;6.90;;
10005;SDS011;5042;42.626;23.382;2022-12-18T15:00:11;10.80;;;6.80;;
10005;SDS011;5042;42.626;23.382;2022-12-18T15:02:43;10.40;;;6.73;;
10005;SDS011;5042;42.626;23.382;2022-12-18T15:05:16;12.00;;;6.37;;
10005;SDS011;5042;42.626;23.382;2022-12-18T15:07:46;12.17;;;6.97;;